Flugplatz Jesenwang

Für EDMJ sind keine METAR/TAF Berichte vorhanden.
Es werden die Flugwettermeldungen vom Flugplatz Oberpfaffenhofen in 15 km Entfernung angezeigt.

Bericht für EDMO

vom 25.10. um 16:20 UTC

Wind 2 kt aus 170°

Sichtweite 10 km oder mehr

aufgebrochene Bewölkung in 15000 ft

Temperatur 7.0°C

Taupunkt 6.0°C

Luftfeuchtigkeit 93%

Luftdruck 1021 hPa

EDMO 251620Z AUTO 17002KT 9999 // BKN150/// 07/06 Q1021

Prognose für EDMO

vom 25.10. um 14:00 UTC

Zwischen 15:00 UTC und 00:00 UTC

variable Windrichtung mit 2 kt

Sichtweite 10 km oder mehr

keine signifikanten Wettererscheinungen

keine Wolken


Zwischen 22:00 UTC und 00:00 UTC zeitweise mit einer Wahrscheinlichkeit von 30%

Sichtweite 1200 m

Nebelschwaden

TAF EDMO 251400Z 2515/2524 VRB02KT CAVOK PROB30 TEMPO 2522/2524 1200 BCFG
Impressum